Home > Products > Valid Products > MTR

000
SAUS41 KOKX 210355
MTRMTP
METAR KMTP 210354Z AUTO 02006KT 03/00 A3027 RMK AO1 SLP251 T00330000





000
SAUS41 KOKX 210355
MTRMTP
METAR KMTP 210354Z AUTO 02006KT 03/00 A3027 RMK AO1 SLP251 T00330000





000
SAUS41 KOKX 210352
MTRNYC
METAR KNYC 210351Z AUTO 00000KT 10SM OVC026 00/M06 A3031 RMK AO2
SLP255 T00001061 $





000
SAUS41 KOKX 210352
MTRNYC
METAR KNYC 210351Z AUTO 00000KT 10SM OVC026 00/M06 A3031 RMK AO2
SLP255 T00001061 $





000
SAUS41 KOKX 210255
MTRMTP
METAR KMTP 210254Z AUTO 04005KT 03/M01 A3028 RMK AO1 SLP252
T00281011 55001





000
SAUS41 KOKX 210252
MTRNYC
METAR KNYC 210251Z AUTO VRB03KT 10SM OVC028 00/M07 A3031 RMK AO2
SLP257 T00001067 53003 $





000
SAUS41 KOKX 210155
MTRMTP
METAR KMTP 210154Z AUTO 03003KT 03/M01 A3027 RMK AO1 SLP249
T00281011





000
SAUS41 KOKX 210152
MTRNYC
METAR KNYC 210151Z AUTO VRB04KT 10SM OVC029 00/M07 A3031 RMK AO2
SLP257 T00001067 $





000
SAUS41 KOKX 210055
MTRMTP
METAR KMTP 210054Z AUTO 03006KT 03/M02 A3027 RMK AO1 SLP249
T00281017





000
SAUS41 KOKX 210053
MTRNYC
METAR KNYC 210051Z AUTO VRB06KT 10SM OVC029 00/M07 A3030 RMK AO2
SLP252 T00001067 $





000
SAUS41 KOKX 210014
MTRNYC
SPECI KNYC 210012Z AUTO 01007KT 10SM OVC029 00/M07 A3030 RMK AO2
T00001067 $





000
SAUS41 KOKX 202355
MTRMTP
METAR KMTP 202354Z AUTO 02006KT 03/M02 A3028 RMK AO1 SLP252
T00331017 10033 20017 53011





000
SAUS41 KOKX 202352
MTRNYC
METAR KNYC 202351Z AUTO VRB06KT 10SM OVC030 00/M07 A3030 RMK AO2
SLP254 T00001072 10006 20000 52007 $





000
SAUS41 KOKX 202255
MTRMTP
METAR KMTP 202254Z AUTO 02006KT 03/M02 A3026 RMK AO1 SLP246
T00331022





000
SAUS41 KOKX 202253
MTRNYC
METAR KNYC 202251Z AUTO VRB03KT 10SM OVC030 01/M07 A3030 RMK AO2
SLP253 T00061067 $





000
SAUS41 KOKX 202155
MTRMTP
METAR KMTP 202154Z AUTO 34004KT 02/M03 A3025 RMK AO1 SLP244
T00221028





000
SAUS41 KOKX 202152
MTRNYC
METAR KNYC 202151Z AUTO 04004KT 10SM OVC030 01/M07 A3028 RMK AO2
SLP248 T00061067 $





000
SAUS41 KOKX 202055
MTRMTP
METAR KMTP 202054Z AUTO 33006KT 02/M03 A3025 RMK AO1 SLP242
T00221028 56004





000
SAUS41 KOKX 202052
MTRNYC
METAR KNYC 202051Z AUTO VRB03KT 10SM OVC031 01/M07 A3028 RMK AO2
SLP247 T00061072 53001 $





000
SAUS41 KOKX 201955
MTRMTP
METAR KMTP 201954Z AUTO 31005KT 02/M03 A3025 RMK AO1 SLP243
T00221028





000
SAUS41 KOKX 201953
MTRNYC
METAR KNYC 201951Z AUTO 36005KT 10SM OVC030 01/M07 A3027 RMK AO2
SLP243 T00061072 $





000
SAUS41 KOKX 201855
MTRMTP
METAR KMTP 201854Z AUTO 36005KT 02/M02 A3024 RMK AO1 SLP241
T00171022





000
SAUS41 KOKX 201852
MTRNYC
METAR KNYC 201851Z AUTO VRB03KT 10SM OVC030 01/M08 A3027 RMK AO2
SLP245 T00061078 $





000
SAUS41 KOKX 201820
MTRNYC
SPECI KNYC 201818Z AUTO VRB03KT 10SM OVC030 00/M08 A3027 RMK AO2
T00001078 $





000
SAUS41 KOKX 201755
MTRMTP
METAR KMTP 201754Z AUTO 29005KT 02/M02 A3026 RMK AO1 SLP246
T00171022 10022 20006 58004





000
SAUS41 KOKX 201753
MTRNYC
METAR KNYC 201751Z AUTO 36006KT 10SM OVC029 00/M08 A3028 RMK AO2
SLP246 T00001078 10000 21011 58016 $





000
SAUS41 KOKX 201655
MTRMTP
METAR KMTP 201654Z AUTO 29003KT 02/M03 A3026 RMK AO1 SLP246
T00171028





000
SAUS41 KOKX 201653
MTRNYC
METAR KNYC 201651Z AUTO 31007KT 10SM OVC027 M01/M08 A3031 RMK AO2
SLP255 T10061078 $





000
SAUS41 KOKX 201555
MTRMTP
METAR KMTP 201554Z AUTO 34003KT 02/M03 A3027 RMK AO1 SLP250
T00171033





000
SAUS41 KOKX 201553
MTRNYC
METAR KNYC 201551Z AUTO 00000KT 10SM OVC026 M01/M08 A3031 RMK AO2
SLP258 T10061078 $





000
SAUS41 KOKX 201455
MTRMTP
METAR KMTP 201454Z AUTO VRB05KT 01/M04 A3027 RMK AO1 SLP249
T00111039 50006





000
SAUS41 KOKX 201453
MTRNYC
METAR KNYC 201451Z AUTO 00000KT 10SM OVC026 M01/M08 A3033 RMK AO2
SLP262 T10061078 53015 $





000
SAUS41 KOKX 201355
MTRMTP
METAR KMTP 201354Z AUTO 35004KT 01/M04 A3027 RMK AO1 SLP250
T00061039





000
SAUS41 KOKX 201352
MTRNYC
METAR KNYC 201351Z AUTO VRB03KT 10SM OVC025 M01/M07 A3030 RMK AO2
SLP253 T10111072 $





000
SAUS41 KOKX 201255
MTRMTP
METAR KMTP 201254Z AUTO 32004KT 01/M04 A3027 RMK AO1 SLP248
T00061044





000
SAUS41 KOKX 201253
MTRNYC
METAR KNYC 201251Z AUTO VRB04KT 10SM OVC025 M01/M07 A3028 RMK AO2
SLP248 T10061072 $





000
SAUS41 KOKX 201155
MTRMTP
METAR KMTP 201154Z AUTO 36003KT 01/M04 A3025 RMK AO1 SLP243
T00061044 10011 20000 52022





000
SAUS41 KOKX 201153
MTRNYC
METAR KNYC 201151Z AUTO VRB05KT 10SM OVC027 M01/M07 A3028 RMK AO2
SLP247 T10061072 10000 21006 51015 $





000
SAUS41 KOKX 201055
MTRMTP
METAR KMTP 201054Z AUTO 00000KT 00/M05 A3023 RMK AO1 SLP236
T00001050





000
SAUS41 KOKX 201053
MTRNYC
METAR KNYC 201051Z AUTO VRB05KT 10SM OVC028 M01/M07 A3027 RMK AO2
SLP243 T10061072 $





000
SAUS41 KOKX 200955
MTRMTP
METAR KMTP 200954Z AUTO 02006KT 00/M05 A3021 RMK AO1 SLP228
T00001050





000
SAUS41 KOKX 200952
MTRNYC
METAR KNYC 200951Z AUTO VRB06KT 10SM OVC029 M01/M07 A3025 RMK AO2
SLP237 T10061072 $





000
SAUS41 KOKX 200855
MTRMTP
METAR KMTP 200854Z AUTO 02005KT 01/M05 A3019 RMK AO1 SLP221
T00061050 53005





000
SAUS41 KOKX 200852
MTRNYC
METAR KNYC 200851Z AUTO 03006KT 10SM OVC026 M01/M07 A3024 RMK AO2
SLP232 T10061072 53010 $





000
SAUS41 KOKX 200755
MTRMTP
METAR KMTP 200754Z AUTO 01006KT 01/M05 A3018 RMK AO1 SLP219
T00111050





000
SAUS41 KOKX 200755
MTRMTP
METAR KMTP 200754Z AUTO 01006KT 01/M05 A3018 RMK AO1 SLP219
T00111050





000
SAUS41 KOKX 200753
MTRNYC
METAR KNYC 200751Z AUTO VRB05KT 10SM OVC026 M01/M07 A3022 RMK AO2
SLP226 T10061072 $





000
SAUS41 KOKX 200753
MTRNYC
METAR KNYC 200751Z AUTO VRB05KT 10SM OVC026 M01/M07 A3022 RMK AO2
SLP226 T10061072 $





000
SAUS41 KOKX 200655
MTRMTP
METAR KMTP 200654Z AUTO 32006KT 01/M05 A3017 RMK AO1 SLP217
T00111050





000
SAUS41 KOKX 200652
MTRNYC
METAR KNYC 200651Z AUTO 03007KT 10SM OVC026 00/M07 A3021 RMK AO2
SLP222 T00001067 $





000
SAUS41 KOKX 200555
MTRMTP
METAR KMTP 200554Z AUTO 31005KT 01/M05 A3017 RMK AO1 SLP216
T00111050 10022 20011 51017





000
SAUS41 KOKX 200553
MTRNYC
METAR KNYC 200551Z AUTO VRB06KT 10SM OVC028 00/M07 A3021 RMK AO2
SLP222 T00001067 10006 21006 50008 $





000
SAUS41 KOKX 200455
MTRMTP
METAR KMTP 200454Z AUTO 36006KT 02/M05 A3015 RMK AO1 SLP210
T00171050 400500017





000
SAUS41 KOKX 200453
MTRNYC
METAR KNYC 200451Z AUTO 30004KT 10SM OVC029 00/M07 A3021 RMK AO2
SLP224 T00001067 400331006 $





000
SAUS41 KOKX 200446
MTRNYC
SPECI KNYC 200444Z AUTO 30005KT 10SM OVC029 00/M07 A3021 RMK AO2
T00001067 $





000
SAUS41 KOKX 200355
MTRMTP
METAR KMTP 200354Z AUTO 34008KT 02/M05 A3014 RMK AO1 SLP207
T00171050





000
SAUS41 KOKX 200355
MTRMTP
METAR KMTP 200354Z AUTO 34008KT 02/M05 A3014 RMK AO1 SLP207
T00171050





000
SAUS41 KOKX 200352
MTRNYC
METAR KNYC 200351Z AUTO 29005KT 10SM CLR M01/M07 A3019 RMK AO2
SLP218 T10061067 $





000
SAUS41 KOKX 200352
MTRNYC
METAR KNYC 200351Z AUTO 29005KT 10SM CLR M01/M07 A3019 RMK AO2
SLP218 T10061067 $





000
SAUS41 KOKX 200255
MTRMTP
METAR KMTP 200254Z AUTO 31007KT 02/M05 A3012 RMK AO1 SLP199
T00171050 50007





000
SAUS41 KOKX 200252
MTRNYC
METAR KNYC 200251Z AUTO 31008KT 10SM CLR 00/M07 A3018 RMK AO2 SLP214
T00001067 53007 $





000
SAUS41 KOKX 200155
MTRMTP
METAR KMTP 200154Z AUTO 33007KT 02/M06 A3012 RMK AO1 SLP200
T00171056





000
SAUS41 KOKX 200152
MTRNYC
METAR KNYC 200151Z AUTO VRB05KT 10SM BKN033 00/M07 A3016 RMK AO2
SLP205 T00001072 $





000
SAUS41 KOKX 200152
MTRNYC
METAR KNYC 200151Z AUTO VRB05KT 10SM BKN033 00/M07 A3016 RMK AO2
SLP205 T00001072 $





000
SAUS41 KOKX 200055
MTRMTP
METAR KMTP 200054Z AUTO 32008KT 02/M05 A3012 RMK AO1 SLP199
T00221050





000
SAUS41 KOKX 200053
MTRNYC
METAR KNYC 200051Z AUTO 31007G15KT 10SM BKN034 00/M07 A3017 RMK AO2
SLP211 T00001072 $





000
SAUS41 KOKX 192355
MTRMTP
METAR KMTP 192354Z AUTO 33009G15KT 02/M06 A3010 RMK AO1 SLP192
T00221056 10050 20022 53026





000
SAUS41 KOKX 192352
MTRNYC
METAR KNYC 192351Z AUTO VRB04KT 10SM BKN035 00/M07 A3016 RMK AO2
SLP207 T00001072 10028 20000 53024 $





000
SAUS41 KOKX 192255
MTRMTP
METAR KMTP 192254Z AUTO 34010KT 02/M06 A3006 RMK AO1 SLP180
T00221056





000
SAUS41 KOKX 192252
MTRNYC
METAR KNYC 192251Z AUTO 30008G17KT 250V340 10SM BKN032 01/M07 A3014
RMK AO2 SLP198 T00061072





000
SAUS41 KOKX 192155
MTRMTP
METAR KMTP 192154Z AUTO 33011G18KT 03/M04 A3004 RMK AO1 SLP172
T00281044





000
SAUS41 KOKX 192153
MTRNYC
METAR KNYC 192151Z AUTO VRB06KT 10SM FEW034 01/M07 A3011 RMK AO2
SLP190 T00061072





000
SAUS41 KOKX 192055
MTRMTP
METAR KMTP 192054Z AUTO 34008KT 03/M05 A3002 RMK AO1 SLP166
T00331050 53018





000
SAUS41 KOKX 192052
MTRNYC
METAR KNYC 192051Z AUTO 10SM CLR 02/M07 A3009 RMK AO2 SLP183
T00171072 53013





000
SAUS41 KOKX 191955
MTRMTP
METAR KMTP 191954Z AUTO 30010G17KT 04/M04 A3000 RMK AO1 SLP159
T00391044





000
SAUS41 KOKX 191955
MTRMTP
METAR KMTP 191954Z AUTO 30010G17KT 04/M04 A3000 RMK AO1 SLP159
T00391044





000
SAUS41 KOKX 191952
MTRNYC
METAR KNYC 191951Z AUTO VRB05G16KT 10SM CLR 02/M07 A3007 RMK AO2
SLP173 T00221072





000
SAUS41 KOKX 191952
MTRNYC
METAR KNYC 191951Z AUTO VRB05G16KT 10SM CLR 02/M07 A3007 RMK AO2
SLP173 T00221072





000
SAUS41 KOKX 191855
MTRMTP
METAR KMTP 191854Z AUTO 32009KT 04/M04 A2998 RMK AO1 SLP151
T00391044





000
SAUS41 KOKX 191855
MTRMTP
METAR KMTP 191854Z AUTO 32009KT 04/M04 A2998 RMK AO1 SLP151
T00391044





000
SAUS41 KOKX 191852
MTRNYC
METAR KNYC 191851Z AUTO 30009G17KT 10SM CLR 02/M07 A3006 RMK AO2
SLP170 T00221072





000
SAUS41 KOKX 191755
MTRMTP
METAR KMTP 191754Z AUTO 29010G16KT 05/M04 A2997 RMK AO1 SLP148
T00501044 10050 20028 58010





000
SAUS41 KOKX 191752
MTRNYC
METAR KNYC 191751Z AUTO 29007G14KT 10SM SCT040 03/M07 A3005 RMK AO2
SLP169 T00281072 10033 20017 56010





000
SAUS41 KOKX 191655
MTRMTP
METAR KMTP 191654Z AUTO 30008G19KT 04/M04 A2998 RMK AO1 SLP151
T00441044





000
SAUS41 KOKX 191652
MTRNYC
METAR KNYC 191651Z AUTO 34008G15KT 280V040 10SM BKN037 02/M07 A3006
RMK AO2 SLP171 T00221072 $





000
SAUS41 KOKX 191555
MTRMTP
METAR KMTP 191554Z AUTO 30010G19KT 04/M04 A2999 RMK AO1 SLP156
T00391044





000
SAUS41 KOKX 191553
MTRNYC
METAR KNYC 191551Z AUTO VRB05G17KT 10SM OVC034 02/M07 A3008 RMK AO2
SLP176 T00171072 $





000
SAUS41 KOKX 191455
MTRMTP
METAR KMTP 191454Z AUTO 29011G18KT 03/M05 A3000 RMK AO1 SLP158
T00331050 51011





000
SAUS41 KOKX 191453
MTRNYC
METAR KNYC 191451Z AUTO 33007KT 250V060 10SM OVC032 02/M07 A3008 RMK
AO2 SLP179 T00171067 51023 $





000
SAUS41 KOKX 191355
MTRMTP
METAR KMTP 191354Z AUTO 30012G20KT 03/M06 A2999 RMK AO1 SLP156
T00281056





000
SAUS41 KOKX 191352
MTRNYC
METAR KNYC 191351Z AUTO 34004KT 10SM OVC034 02/M07 A3007 RMK AO2
SLP173 T00221067 $





000
SAUS41 KOKX 191255
MTRMTP
METAR KMTP 191254Z AUTO 31012G20KT 03/M05 A2997 RMK AO1 SLP149
T00281050





000
SAUS41 KOKX 191252
MTRNYC
METAR KNYC 191251Z AUTO 30010G16KT 10SM OVC035 02/M06 A3004 RMK AO2
SLP164 T00221061 $





000
SAUS41 KOKX 191155
MTRMTP
METAR KMTP 191154Z AUTO 30012G18KT 03/M04 A2997 RMK AO1 SLP147
T00281044 10039 20028 53015





000
SAUS41 KOKX 191152
MTRNYC
METAR KNYC 191151Z AUTO 31009G16KT 10SM OVC034 03/M06 A3001 RMK AO2
SLP156 T00281056 10033 20022 53007 $





000
SAUS41 KOKX 191055
MTRMTP
METAR KMTP 191054Z AUTO 31012G19KT 03/M04 A2995 RMK AO1 SLP142
T00331039





000
SAUS41 KOKX 191052
MTRNYC
METAR KNYC 191051Z AUTO 32007KT 10SM OVC036 03/M06 A3000 RMK AO2
SLP152 T00281061 $





000
SAUS41 KOKX 190955
MTRMTP
METAR KMTP 190954Z AUTO 31012G19KT 03/M03 A2993 RMK AO1 SLP135
T00331033





000
SAUS41 KOKX 190955
MTRMTP
METAR KMTP 190954Z AUTO 31012G19KT 03/M03 A2993 RMK AO1 SLP135
T00331033





000
SAUS41 KOKX 190952
MTRNYC
METAR KNYC 190951Z AUTO 29009KT 270V330 10SM OVC035 03/M06 A2999 RMK
AO2 SLP149 T00281056 $





000
SAUS41 KOKX 190952
MTRNYC
METAR KNYC 190951Z AUTO 29009KT 270V330 10SM OVC035 03/M06 A2999 RMK
AO2 SLP149 T00281056 $





000
SAUS41 KOKX 190855
MTRMTP
METAR KMTP 190854Z AUTO 31012KT 03/M03 A2992 RMK AO1 SLP132
T00331028 50000





000
SAUS41 KOKX 190852
MTRNYC
METAR KNYC 190851Z AUTO 30006G14KT 10SM CLR 02/M05 A2999 RMK AO2
SLP149 T00221050 53004 $





000
SAUS41 KOKX 190755
MTRMTP
METAR KMTP 190754Z AUTO 29011G19KT 03/M03 A2993 RMK AO1 SLP135
T00331028





000
SAUS41 KOKX 190753
MTRNYC
METAR KNYC 190751Z AUTO 30005KT 10SM CLR 03/M04 A2999 RMK AO2 SLP148
T00281044 $





000
SAUS41 KOKX 190655
MTRMTP
METAR KMTP 190654Z AUTO 29010G18KT 03/M03 A2993 RMK AO1 SLP134
T00331028





000
SAUS41 KOKX 190653
MTRNYC
METAR KNYC 190651Z AUTO 00000KT 10SM OVC050 03/M04 A2998 RMK AO2
SLP145 T00281039 $





000
SAUS41 KOKX 190555
MTRMTP
METAR KMTP 190554Z AUTO 30009KT 03/M03 A2992 RMK AO1 SLP132
T00331028 10050 20033 50000





000
SAUS41 KOKX 190553
MTRNYC
METAR KNYC 190551Z AUTO VRB06KT 10SM BKN031 OVC050 03/M04 A2998 RMK
AO2 SLP145 T00331039 10039 20028 56004 $





000
SAUS41 KOKX 190524
MTRNYC
SPECI KNYC 190523Z AUTO 30006KT 10SM OVC030 03/M04 A2999 RMK AO2
T00331039 $





000
SAUS41 KOKX 190455
MTRMTP
METAR KMTP 190454Z AUTO 30012G18KT 04/M03 A2993 RMK AO1 SLP135
T00391028 400670039





000
SAUS41 KOKX 190452
MTRNYC
METAR KNYC 190451Z AUTO 28005KT 10SM BKN029 03/M04 A2999 RMK AO2
SLP146 T00281039 400560028 $





000
SAUS41 KOKX 190355
MTRMTP
METAR KMTP 190354Z AUTO 29007G15KT 04/M03 A2994 RMK AO1 SLP137
T00391028





000
SAUS41 KOKX 190355
MTRMTP
METAR KMTP 190354Z AUTO 29007G15KT 04/M03 A2994 RMK AO1 SLP137
T00391028





000
SAUS41 KOKX 190353
MTRNYC
METAR KNYC 190351Z AUTO 29005KT 10SM CLR 03/M04 A2999 RMK AO2 SLP146
T00331039 $





000
SAUS41 KOKX 190353
MTRNYC
METAR KNYC 190351Z AUTO 29005KT 10SM CLR 03/M04 A2999 RMK AO2 SLP146
T00331039 $





000
SAUS41 KOKX 190255
MTRMTP
METAR KMTP 190254Z AUTO 31008KT 04/M03 A2992 RMK AO1 SLP132
T00391028 50005





000
SAUS41 KOKX 190252
MTRNYC
METAR KNYC 190251Z AUTO 28007KT 10SM CLR 03/M04 A2999 RMK AO2 SLP149
T00331039 53004 $





000
SAUS41 KOKX 190155
MTRMTP
METAR KMTP 190154Z AUTO 31011G17KT 04/M02 A2992 RMK AO1 SLP132
T00441022





000
SAUS41 KOKX 190155
MTRMTP
METAR KMTP 190154Z AUTO 31011G17KT 04/M02 A2992 RMK AO1 SLP132
T00441022





000
SAUS41 KOKX 190152
MTRNYC
METAR KNYC 190151Z AUTO 30007KT 10SM CLR 03/M04 A2998 RMK AO2 SLP145
T00331039 $





000
SAUS41 KOKX 190152
MTRNYC
METAR KNYC 190151Z AUTO 30007KT 10SM CLR 03/M04 A2998 RMK AO2 SLP145
T00331039 $





000
SAUS41 KOKX 190055
MTRMTP
METAR KMTP 190054Z AUTO 31012G18KT 04/M02 A2992 RMK AO1 SLP130
T00441022





000
SAUS41 KOKX 190052
MTRNYC
METAR KNYC 190051Z AUTO VRB06G16KT 10SM BKN030 03/M04 A2999 RMK AO2
SLP147 T00331039 $





000
SAUS41 KOKX 182355
MTRMTP
METAR KMTP 182354Z AUTO 31012G19KT 05/M02 A2991 RMK AO1 SLP127
T00501017 10067 20050 51007





000
SAUS41 KOKX 182352
MTRNYC
METAR KNYC 182351Z AUTO 31009G17KT 10SM BKN031 04/M04 A2998 RMK AO2
SLP145 T00391039 10056 20039 50003 $





000
SAUS41 KOKX 182255
MTRMTP
METAR KMTP 182254Z AUTO 30012G20KT 06/M02 A2991 RMK AO1 SLP127
T00561017





000
SAUS41 KOKX 182253
MTRNYC
METAR KNYC 182251Z AUTO 30008G15KT 10SM OVC034 04/M04 A2999 RMK AO2
SLP146 T00441044 $





000
SAUS41 KOKX 182156
MTRMTP
METAR KMTP 182154Z AUTO 30014G22KT 06/M02 A2990 RMK AO1 SLP125
T00561017





000
SAUS41 KOKX 182153
MTRNYC
METAR KNYC 182151Z AUTO 32009G20KT 10SM OVC035 04/M04 A2999 RMK AO2
SLP146 T00441044 $





000
SAUS41 KOKX 182055
MTRMTP
METAR KMTP 182054Z AUTO 29012G20KT 06/M02 A2989 RMK AO1 SLP120
T00561017 53007





000
SAUS41 KOKX 182053
MTRNYC
METAR KNYC 182051Z AUTO VRB06G22KT 10SM BKN038 05/M05 A2998 RMK AO2
SLP142 T00501050 53003 $





000
SAUS41 KOKX 181955
MTRMTP
METAR KMTP 181954Z AUTO 30015G22KT 06/M02 A2987 RMK AO1 SLP114
T00611022





000
SAUS41 KOKX 181952
MTRNYC
METAR KNYC 181951Z AUTO 29011G20KT 10SM CLR 05/M05 A2996 RMK AO2
SLP137 T00501050 $





000
SAUS41 KOKX 181855
MTRMTP
METAR KMTP 181854Z AUTO 29012G22KT 06/M02 A2986 RMK AO1 SLP112
T00611022





000
SAUS41 KOKX 181852
MTRNYC
METAR KNYC 181851Z AUTO 29009G17KT 10SM BKN041 05/M06 A2995 RMK AO2
SLP135 T00501056 $





000
SAUS41 KOKX 181755
MTRMTP
METAR KMTP 181754Z AUTO 29014G24KT 06/M02 A2987 RMK AO1 PK WND
30028/1708 SLP113 T00611017 10061 20044 58013





000
SAUS41 KOKX 181752
MTRNYC
METAR KNYC 181751Z AUTO 29009G17KT 10SM OVC040 05/M06 A2997 RMK AO2
SLP140 T00501056 10056 20033 58016 $





000
SAUS41 KOKX 181655
MTRMTP
METAR KMTP 181654Z AUTO 29015G28KT 06/M03 A2988 RMK AO1 PK WND
29028/1654 SLP118 T00561028





000
SAUS41 KOKX 181653
MTRNYC
METAR KNYC 181651Z AUTO 29007G15KT 260V330 10SM OVC039 04/M06 A2999
RMK AO2 SLP147 T00441056 $





000
SAUS41 KOKX 181555
MTRMTP
METAR KMTP 181554Z AUTO 29015G29KT 06/M02 A2990 RMK AO1 PK WND
31029/1547 SLP124 T00561022





000
SAUS41 KOKX 181553
MTRNYC
METAR KNYC 181551Z AUTO 29007G15KT 260V330 10SM OVC040 05/M06 A3000
RMK AO2 SLP151 T00501056 $





000
SAUS41 KOKX 181455
MTRMTP
METAR KMTP 181454Z AUTO 30015G23KT 05/M02 A2990 RMK AO1 PK WND
29027/1357 SLP126 T00501022 53016





000
SAUS41 KOKX 181452
MTRNYC
METAR KNYC 181451Z AUTO VRB06G19KT 10SM BKN040 04/M06 A3002 RMK AO2
SLP156 T00441056 53013 $





000
SAUS41 KOKX 181355
MTRMTP
METAR KMTP 181354Z AUTO 29014G24KT 05/M02 A2989 RMK AO1 PK WND
27028/1325 SLP121 T00501017





000
SAUS41 KOKX 181355
MTRMTP
METAR KMTP 181354Z AUTO 29014G24KT 05/M02 A2989 RMK AO1 PK WND
27028/1325 SLP121 T00501017





000
SAUS41 KOKX 181352
MTRNYC
METAR KNYC 181351Z AUTO 31007G15KT 280V350 10SM OVC040 04/M06 A3000
RMK AO2 SLP152 T00391061 $





000
SAUS41 KOKX 181352
MTRNYC
METAR KNYC 181351Z AUTO 31007G15KT 280V350 10SM OVC040 04/M06 A3000
RMK AO2 SLP152 T00391061 $





000
SAUS41 KOKX 181255
MTRMTP
METAR KMTP 181254Z AUTO 28012G26KT 05/M02 A2987 RMK AO1 PK WND
29030/1159 SLP114 T00501017





000
SAUS41 KOKX 181255
MTRMTP
METAR KMTP 181254Z AUTO 28012G26KT 05/M02 A2987 RMK AO1 PK WND
29030/1159 SLP114 T00501017





000
SAUS41 KOKX 181252
MTRNYC
METAR KNYC 181251Z AUTO 31008G14KT 270V340 10SM BKN042 03/M06 A2998
RMK AO2 SLP144 T00331061 $





000
SAUS41 KOKX 181252
MTRNYC
METAR KNYC 181251Z AUTO 31008G14KT 270V340 10SM BKN042 03/M06 A2998
RMK AO2 SLP144 T00331061 $





000
SAUS41 KOKX 181155
MTRMTP
METAR KMTP 181154Z AUTO 29015G24KT 05/M01 A2986 RMK AO1 SLP110 70001
T00501011 10061 20050 53012





000
SAUS41 KOKX 181155
MTRMTP
METAR KMTP 181154Z AUTO 29015G24KT 05/M01 A2986 RMK AO1 SLP110 70001
T00501011 10061 20050 53012





000
SAUS41 KOKX 181152
MTRNYC
METAR KNYC 181151Z AUTO 30008G25KT 260V020 10SM OVC040 03/M06 A2998
RMK AO2 SLP143 T00331061 10050 20033 53018 $





000
SAUS41 KOKX 181056
MTRMTP
METAR KMTP 181054Z AUTO 29012G25KT 05/M01 A2984 RMK AO1 SLP104
T00501006





000
SAUS41 KOKX 181056
MTRMTP
METAR KMTP 181054Z AUTO 29012G25KT 05/M01 A2984 RMK AO1 SLP104
T00501006





000
SAUS41 KOKX 181053
MTRNYC
METAR KNYC 181051Z AUTO 29008G16KT 10SM FEW040 03/M06 A2995 RMK AO2
SLP135 T00331056 $





000
SAUS41 KOKX 181053
MTRNYC
METAR KNYC 181051Z AUTO 29008G16KT 10SM FEW040 03/M06 A2995 RMK AO2
SLP135 T00331056 $





000
SAUS41 KOKX 180955
MTRMTP
METAR KMTP 180954Z AUTO 28014G22KT 06/M01 A2982 RMK AO1 PK WND
28027/0930 SLP099 T00561006





000
SAUS41 KOKX 180952
MTRNYC
METAR KNYC 180951Z AUTO 28007KT 250V320 10SM FEW095 04/M06 A2993 RMK
AO2 SLP128 T00391056 $





000
SAUS41 KOKX 180855
MTRMTP
METAR KMTP 180854Z AUTO 27013G19KT 06/00 A2982 RMK AO1 SLP098
T00610000 53002





000
SAUS41 KOKX 180855
MTRMTP
METAR KMTP 180854Z AUTO 27013G19KT 06/00 A2982 RMK AO1 SLP098
T00610000 53002





000
SAUS41 KOKX 180853
MTRNYC
METAR KNYC 180851Z AUTO VRB06G17KT 10SM FEW070 OVC090 04/M04 A2992
RMK AO2 SLP125 T00441044 50008 $





000
SAUS41 KOKX 180853
MTRNYC
METAR KNYC 180851Z AUTO VRB06G17KT 10SM FEW070 OVC090 04/M04 A2992
RMK AO2 SLP125 T00441044 50008 $





000
SAUS41 KOKX 180755
MTRMTP
METAR KMTP 180754Z AUTO 28011G18KT 06/01 A2982 RMK AO1 SLP097
T00610006





000
SAUS41 KOKX 180755
MTRMTP
METAR KMTP 180754Z AUTO 28011G18KT 06/01 A2982 RMK AO1 SLP097
T00610006





000
SAUS41 KOKX 180752
MTRNYC
METAR KNYC 180751Z AUTO 31009G20KT 10SM BKN045 OVC060 05/M05 A2993
RMK AO2 SLP127 T00501050 $





000
SAUS41 KOKX 180752
MTRNYC
METAR KNYC 180751Z AUTO 31009G20KT 10SM BKN045 OVC060 05/M05 A2993
RMK AO2 SLP127 T00501050 $





000
SAUS41 KOKX 180655
MTRMTP
METAR KMTP 180654Z AUTO 28010G18KT 06/01 A2981 RMK AO1 SLP095
T00560006





000
SAUS41 KOKX 180652
MTRNYC
METAR KNYC 180651Z AUTO 27008KT 10SM OVC040 05/M04 A2991 RMK AO2
SLP120 T00501039 $





000
SAUS41 KOKX 180555
MTRMTP
METAR KMTP 180554Z AUTO 29010G20KT 06/01 A2982 RMK AO1 SLP096 60001
T00610006 10089 20061 58002





000
SAUS41 KOKX 180553
MTRNYC
METAR KNYC 180551Z AUTO 27010G17KT 10SM OVC042 05/M04 A2990 RMK AO2
SLP116 60000 T00501039 10083 20050 58005 $





    US Dept of Commerce
    National Oceanic and Atmospheric Administration
    National Weather Service
    1325 East West Highway
    Silver Spring, MD 20910
    Page Author: NWS Internet Services Team
Disclaimer
Information Quality
Credits
Glossary
Privacy Policy
Freedom of Information Act (FOIA)
About Us
Career Opportunities